Nearby METAR Reports

 

EHAM - Amsterdam/Schiph, Netherlands
Distance from station: WNW 24km
Updated: 21/09/2018 15:55
Light rain, Showers, Partly cloudy
Light rain, Showers, Partly cloudy
 Wind from WSW
Wind: WSW 41 km/h
Temperature: 15°C
Dew Point: 6°C
Humidity: 55%
Barometer: 1008 hPa
Summary: Light rain, Showers
Clouds: Partly cloudy
Visibility: 10 km
Cloud details: Partly cloudy 1158 m
2018/09/21 13:55 EHAM 211355Z 25022KT 9999 -SHRA SCT038CB 15/06 Q1008 NOSIG
EHDL - Deelen Rnlafb, Netherlands
Distance from station: ESE 55km
Updated: 21/09/2018 15:55
Clear
Clear
 Wind from WSW
Wind: WSW 35 km/h
Temperature: 16°C
Dew Point: 5°C
Humidity: 48%
Barometer: 1008 hPa
Clouds: Clear
Visibility: 10 km
2018/09/21 13:55 EHDL 211355Z AUTO 24019KT 180V300 9999 NCD 16/05 Q1008 BLU
EHRD - Rotterdam Airpor, Netherlands
Distance from station: SW 55km
Updated: 21/09/2018 15:55
Partly cloudy
Partly cloudy
 Wind from WSW
Wind: WSW 44 km/h, Gust: 67 km/h
Temperature: 15°C
Dew Point: 5°C
Humidity: 51%
Barometer: 1009 hPa
Clouds: Partly cloudy
Visibility: 10 km
2018/09/21 13:55 EHRD 211355Z AUTO 25024G36KT 210V290 9999 NSC 15/05 Q1009 NOSIG
 
EHGR - Gilze-Rijen Rnla, Netherlands
Distance from station: S 75km
Updated: 21/09/2018 15:55
Mostly cloudy
Mostly cloudy
 Wind from W
Wind: W 30 km/h, Gust: 57 km/h
Temperature: 16°C
Dew Point: 5°C
Humidity: 48%
Barometer: 1010 hPa
Clouds: Mostly cloudy
Visibility: 10 km
Cloud details: Mostly cloudy 1402 m
Mostly cloudy 1707 m
2018/09/21 13:55 EHGR 211355Z AUTO 26016G31KT 230V290 9999 BKN046 BKN056 16/05 Q1010 BLU 24012G25KT 9999 SCT025 BKN060 TEMPO 25015G30KT
EHVK - Volkel Rnlafb, Netherlands
Distance from station: SSE 78km
Updated: 21/09/2018 15:55
Overcast
Overcast
 Wind from W
Wind: W 24 km/h
Temperature: 17°C
Dew Point: 6°C
Humidity: 49%
Barometer: 1009 hPa
Clouds: Overcast
Visibility: 10 km
Cloud details: Mostly cloudy 1341 m
Overcast 1798 m
2018/09/21 13:55 EHVK 211355Z AUTO 26013KT 240V320 9999 BKN044 OVC059 17/06 Q1009 BLU
EHKD - De Kooy (navy), Netherlands
Distance from station: NNW 80km
Updated: 21/09/2018 15:55
Partly cloudy
Partly cloudy
 Wind from WSW
Wind: WSW 44 km/h, Gust: 65 km/h
Temperature: 15°C
Dew Point: 7°C
Humidity: 59%
Barometer: 1006 hPa
Clouds: Partly cloudy
Visibility: 10 km
Cloud details: Few Clouds 1006 m
Partly cloudy 2286 m
2018/09/21 13:55 EHKD 211355Z AUTO 25024G35KT 220V280 9999 FEW033CB SCT075 15/07 Q1006 BLU 25026G36KT 9999 SCT030 SCT040 TEMPO FEW020CB BKN030
 
EHEH - Eindhoven Rnlafb, Netherlands
Distance from station: SSE 89km
Updated: 21/09/2018 15:55
Few Clouds
Few Clouds
 Wind from W
Wind: W 30 km/h, Gust: 48 km/h
Temperature: 17°C
Dew Point: 6°C
Humidity: 49%
Barometer: 1010 hPa
Clouds: Few Clouds
Visibility: 10 km
Cloud details: Few Clouds 1494 m
2018/09/21 13:55 EHEH 211355Z AUTO 27016G26KT 230V320 9999 FEW049 17/06 Q1010 BLU 26015G27KT 9999 SCT040
EDLV - Niederrhein, Germany
Distance from station: SE 100km
Updated: 21/09/2018 15:50
Few Clouds
Few Clouds
 Wind from W
Wind: W 35 km/h
Temperature: 17°C
Dew Point: 7°C
Humidity: 52%
Barometer: 1009 hPa
Clouds: Few Clouds
Visibility: 10 km
Cloud details: Few Clouds 1280 m
2018/09/21 13:50 EDLV 211350Z 27019KT 9999 FEW042 17/07 Q1009
EHQE - Hoorn-A Sea, Netherlands
Distance from station: NW 100km
Updated: 21/09/2018 15:55
Partly cloudy
Partly cloudy
 Wind from SW
Wind: SW 69 km/h
Temperature: 15°C
Dew Point: 6°C
Humidity: 55%
Barometer: 1005 hPa
Clouds: Partly cloudy
Visibility: 10 km
Cloud details: Few Clouds 1067 m
Partly cloudy 1189 m
2018/09/21 13:55 EHQE 211355Z AUTO 22037KT 9999 FEW035 SCT039 15/06 Q1005 W///H///
 
EHWO - Woensdrecht Rnla, Netherlands
Distance from station: SSW 103km
Updated: 21/09/2018 15:55
Partly cloudy
Partly cloudy
 Wind from W
Wind: W 41 km/h, Gust: 61 km/h
Temperature: 16°C
Dew Point: 6°C
Humidity: 52%
Barometer: 1010 hPa
Clouds: Partly cloudy
Visibility: 10 km
Cloud details: Partly cloudy 1372 m
Partly cloudy 1554 m
2018/09/21 13:55 EHWO 211355Z AUTO 26022G33KT 220V300 9999 SCT045 SCT051 16/06 Q1010 BLU
EHSC - Goeree Le Sea, Netherlands
Distance from station: WSW 104km
Updated: 21/09/2018 15:55

 Wind from W
Wind: W 65 km/h
Temperature: 15°C
Dew Point: 6°C
Humidity: 55%
Barometer: 1009 hPa
Visibility: 10 km
2018/09/21 13:55 EHSC 211355Z AUTO 26035KT 9999 ///////// 15/06 Q1009 W19/H31
EHVL - Vlieland Island, Netherlands
Distance from station: N 112km
Updated: 21/09/2018 15:55
Light rain, Mostly cloudy
Light rain, Mostly cloudy
 Wind from WSW
Wind: WSW 59 km/h, Gust: 87 km/h
Temperature: 12°C
Dew Point: 7°C
Humidity: 72%
Barometer: 1005 hPa
Summary: Light rain
Clouds: Mostly cloudy
Visibility: 7 km
Cloud details: Few Clouds 579 m
Partly cloudy 1036 m
Mostly cloudy 1433 m
2018/09/21 13:55 EHVL 211355Z AUTO 25032G47KT 7000 -RA FEW019CB SCT034 BKN047 12/07 Q1005 RERA REDZ WHT
 
EHLW - Leeuwarden Rnlaf, Netherlands
Distance from station: NNE 118km
Updated: 21/09/2018 15:55
Partly cloudy
Partly cloudy
 Wind from WSW
Wind: WSW 46 km/h
Temperature: 15°C
Dew Point: 6°C
Humidity: 55%
Barometer: 1005 hPa
Clouds: Partly cloudy
Visibility: 10 km
Cloud details: Partly cloudy 1128 m
Partly cloudy 1372 m
2018/09/21 13:55 EHLW 211355Z AUTO 25025KT 9999 SCT037 SCT045 15/06 Q1005 BLU 25023G35KT 9999 FEW025 BKN032 RMK R23
EBBL - Kleine-Brogel(Ba, Belgium
Distance from station: SSE 121km
Updated: 20/09/2018 16:25
NOT Current
Partly cloudy
Partly cloudy
 Wind from SSW
Wind: SSW 19 km/h
Temperature: 25°C
Dew Point: 12°C
Humidity: 44%
Barometer: 1014 hPa
Clouds: Partly cloudy
Visibility: 10 km
Cloud details: Partly cloudy 7620 m
2018/09/20 14:25 EBBL 201425Z 20010KT 9999 SCT250 25/12 Q1014 BLU BLU
EHPG - P11-B Sea, Netherlands
Distance from station: W 121km
Updated: 21/09/2018 15:55
Partly cloudy
Partly cloudy
 Wind from WSW
Wind: WSW 61 km/h
Temperature: 15°C
Dew Point: 7°C
Humidity: 59%
Barometer: 1007 hPa
Clouds: Partly cloudy
Visibility: 10 km
Cloud details: Few Clouds 1219 m
Partly cloudy 1402 m
2018/09/21 13:55 EHPG 211355Z AUTO 24033KT 9999 FEW040 SCT046 15/07 Q1007 RERA W///H///
 
EBAW - Antwerp/Deurne, Belgium
Distance from station: SSW 123km
Updated: 21/09/2018 15:50
Partly cloudy
Partly cloudy
 Wind from W
Wind: W 37 km/h, Gust: 61 km/h
Temperature: 17°C
Dew Point: 2°C
Humidity: 37%
Barometer: 1011 hPa
Clouds: Partly cloudy
Visibility: 10 km
Cloud details: Partly cloudy 1372 m
2018/09/21 13:50 EBAW 211350Z 26020G33KT 240V300 9999 SCT045 17/02 Q1011 TEMPO 21020G32KT
EHSA - Euro Platform, Netherlands
Distance from station: W 127km
Updated: 21/09/2018 15:55

 Wind from SW
Wind: SW 65 km/h
Temperature: 15°C
Dew Point: 7°C
Humidity: 59%
Barometer: 1009 hPa
Visibility: 10 km
2018/09/21 13:55 EHSA 211355Z AUTO 23035KT 9999 ///////// 15/07 Q1009 W17/H29
EBDT - Schaffen, Belgium
Distance from station: S 135km
Updated: 20/09/2018 16:25
NOT Current
Partly cloudy
Partly cloudy
 Wind from SSW
Wind: SSW 20 km/h
Temperature: 25°C
Dew Point: 12°C
Humidity: 44%
Barometer: 1014 hPa
Clouds: Partly cloudy
Visibility: 10 km
Cloud details: Partly cloudy 6096 m
2018/09/20 14:25 EBDT 201425Z AUTO 21011KT 9999 SCT200/// 25/12 Q1014 BLU
 
EHFS - Vlissingen, Netherlands
Distance from station: SW 135km
Updated: 21/09/2018 15:55
Mostly cloudy
Mostly cloudy
 Wind from W
Wind: W 57 km/h
Temperature: 16°C
Dew Point: 8°C
Humidity: 59%
Barometer: 1010 hPa
Clouds: Mostly cloudy
Visibility: 10 km
Cloud details: Partly cloudy 1097 m
Mostly cloudy 1250 m
Mostly cloudy 1402 m
2018/09/21 13:55 EHFS 211355Z AUTO 26031KT 9999 SCT036/// BKN041/// BKN046/// 16/08 Q1010 W///H///
EHGG - Groningen/Eelde, Netherlands
Distance from station: NE 139km
Updated: 21/09/2018 15:55
Few Clouds
Few Clouds
 Wind from WSW
Wind: WSW 37 km/h
Temperature: 15°C
Dew Point: 7°C
Humidity: 59%
Barometer: 1005 hPa
Clouds: Few Clouds
Visibility: 10 km
Cloud details: Few Clouds 1128 m
2018/09/21 13:55 EHGG 211355Z AUTO 25020KT 210V290 9999 FEW037 15/07 Q1005 TEMPO 7000 -SHRA FEW030TCU